Time;durP1;ratioP1;P1;durP2;ratioP2;P2;SDS_P1;SDS_P2;PMS_P1;PMS_P2;Temp;Humidity;BMP_temperature;BMP_pressure;BME280_temperature;BME280_humidity;BME280_pressure;Samples;Min_cycle;Max_cycle;Signal;HPM_P1;HPM_P2
2022/07/08 00:00:14;;;;;;;621.03;587.53;;;;;;;18.50;59.33;101718.19;694237;28;44362;-63
2022/07/08 00:00:36;;;;;;;602.30;570.03;;;;;;;18.50;59.40;101717.34;694950;28;23461;-63
2022/07/08 00:00:58;;;;;;;620.60;587.13;;;;;;;18.50;59.21;101718.19;693903;28;43184;-63
2022/07/08 00:01:19;;;;;;;573.75;543.05;;;;;;;18.51;59.47;101717.16;691418;28;69282;-63
2022/07/08 00:01:42;;;;;;;348.55;330.42;;;;;;;18.50;59.29;101714.63;693736;28;22415;-62
2022/07/08 00:02:04;;;;;;;285.60;270.95;;;;;;;18.49;59.39;101721.13;692944;28;69504;-62
2022/07/08 00:02:26;;;;;;;303.42;287.90;;;;;;;18.49;59.05;101713.75;693683;28;23379;-63
2022/07/08 00:02:47;;;;;;;336.95;319.77;;;;;;;18.49;59.11;101718.41;693391;28;46344;-63
2022/07/08 00:03:09;;;;;;;375.77;356.45;;;;;;;18.47;59.26;101718.59;693203;28;44130;-64
2022/07/08 00:03:30;;;;;;;578.75;547.35;;;;;;;18.45;59.33;101715.25;693858;28;21536;-63
2022/07/08 00:03:51;;;;;;;664.60;628.10;;;;;;;18.46;59.35;101714.16;693030;28;45262;-63
2022/07/08 00:04:13;;;;;;;651.20;615.67;;;;;;;18.48;59.16;101717.56;692937;28;46365;-62
2022/07/08 00:04:34;;;;;;;642.00;607.10;;;;;;;18.47;58.97;101715.03;692909;28;46324;-62
2022/07/08 00:04:56;;;;;;;638.70;604.03;;;;;;;18.47;59.06;101715.03;693823;28;22393;-63
2022/07/08 00:05:18;;;;;;;652.53;616.88;;;;;;;18.45;58.97;101717.97;694061;28;21493;-64
2022/07/08 00:05:39;;;;;;;625.95;592.13;;;;;;;18.45;59.18;101719.84;694984;28;47036;-63
2022/07/08 00:06:04;;;;;;;629.10;595.08;;;;;;;18.43;58.93;101721.94;693701;28;44374;-63
2022/07/08 00:06:25;;;;;;;620.75;587.25;;;;;;;18.44;59.14;101720.91;690012;28;115219;-62
2022/07/08 00:06:47;;;;;;;659.67;623.60;;;;;;;18.46;59.15;101721.53;693161;28;46504;-62
2022/07/08 00:07:09;;;;;;;641.03;606.08;;;;;;;18.43;58.99;101720.09;693017;28;46325;-63
2022/07/08 00:07:30;;;;;;;659.78;623.63;;;;;;;18.42;58.98;101714.81;694413;28;23354;-62
2022/07/08 00:07:51;;;;;;;651.15;615.70;;;;;;;18.39;59.24;101717.97;693775;28;22408;-62
2022/07/08 00:08:13;;;;;;;652.55;617.00;;;;;;;18.37;59.25;101716.25;694215;28;22412;-62
2022/07/08 00:08:35;;;;;;;642.25;607.33;;;;;;;18.37;59.03;101712.69;694056;28;44346;-63
2022/07/08 00:08:56;;;;;;;663.13;627.03;;;;;;;18.39;59.05;101715.22;694197;28;46155;-63
2022/07/08 00:09:18;;;;;;;655.72;620.38;;;;;;;18.39;59.35;101717.97;694149;28;23473;-63
2022/07/08 00:09:39;;;;;;;662.25;626.33;;;;;;;18.39;59.29;101716.06;694523;28;46178;-63
2022/07/08 00:10:01;;;;;;;668.33;632.08;;;;;;;18.40;59.29;101719.63;694927;28;22376;-62
2022/07/08 00:10:23;;;;;;;647.72;612.90;;;;;;;18.40;59.18;101714.16;692235;28;69542;-65
2022/07/08 00:10:44;;;;;;;626.55;593.10;;;;;;;18.41;59.04;101713.13;694481;28;21539;-62
2022/07/08 00:11:09;;;;;;;614.40;581.72;;;;;;;18.40;59.42;101719.63;690754;28;90327;-62
2022/07/08 00:11:31;;;;;;;621.72;588.63;;;;;;;18.41;59.31;101715.84;693454;28;44429;-63
2022/07/08 00:11:53;;;;;;;616.33;583.40;;;;;;;18.39;59.39;101707.84;692685;28;67268;-62
2022/07/08 00:12:15;;;;;;;636.78;602.63;;;;;;;18.42;59.18;101714.81;694299;28;23560;-63
2022/07/08 00:12:36;;;;;;;638.97;604.80;;;;;;;18.40;59.38;101716.88;693415;28;46330;-63
2022/07/08 00:12:58;;;;;;;642.05;607.58;;;;;;;18.43;58.96;101716.47;693972;28;23421;-62
2022/07/08 00:13:19;;;;;;;614.05;581.25;;;;;;;18.43;59.03;101717.34;693413;28;45237;-63
2022/07/08 00:13:41;;;;;;;614.70;582.10;;;;;;;18.43;59.09;101713.75;694611;28;22392;-62
2022/07/08 00:14:02;;;;;;;600.50;568.87;;;;;;;18.42;59.13;101718.38;693033;28;46402;-63
2022/07/08 00:14:25;;;;;;;603.92;572.08;;;;;;;18.43;58.93;101716.47;694158;28;46240;-62
2022/07/08 00:14:46;;;;;;;629.50;596.05;;;;;;;18.43;59.02;101722.81;693331;28;67472;-63
2022/07/08 00:15:09;;;;;;;635.55;601.60;;;;;;;18.41;59.13;101715.84;694377;28;22408;-62
2022/07/08 00:15:30;;;;;;;657.70;622.20;;;;;;;18.40;59.04;101723.22;692612;28;67481;-63
2022/07/08 00:15:52;;;;;;;627.88;594.33;;;;;;;18.37;59.18;101709.97;694726;28;23494;-63
2022/07/08 00:16:13;;;;;;;642.33;607.90;;;;;;;18.33;59.25;101712.25;693403;28;44405;-63
2022/07/08 00:16:39;;;;;;;622.97;589.85;;;;;;;18.42;59.09;101723.03;693456;28;21529;-62
2022/07/08 00:17:01;;;;;;;624.55;590.97;;;;;;;18.43;59.11;101721.94;689617;28;138133;-63
2022/07/08 00:17:23;;;;;;;632.17;598.38;;;;;;;18.41;59.46;101719.41;694112;28;23412;-63
2022/07/08 00:17:44;;;;;;;623.85;590.70;;;;;;;18.42;59.30;101718.38;693052;28;67510;-64
2022/07/08 00:18:05;;;;;;;639.85;605.65;;;;;;;18.43;59.10;101720.09;694583;28;23493;-63
2022/07/08 00:18:26;;;;;;;599.17;567.53;;;;;;;18.43;59.26;101717.34;694146;28;22346;-63
2022/07/08 00:18:48;;;;;;;613.88;581.30;;;;;;;18.44;59.17;101720.91;693993;28;22398;-64
2022/07/08 00:19:12;;;;;;;577.63;547.28;;;;;;;18.45;59.18;101712.50;694448;28;23549;-63
2022/07/08 00:19:36;;;;;;;606.50;573.90;;;;;;;18.44;59.07;101718.19;690956;28;115066;-62
2022/07/08 00:19:58;;;;;;;589.35;557.72;;;;;;;18.45;59.03;101717.97;694184;28;91920;-63
2022/07/08 00:20:20;;;;;;;603.92;571.50;;;;;;;18.45;59.08;101712.50;696485;28;22406;-63
2022/07/08 00:20:41;;;;;;;584.70;553.80;;;;;;;18.44;59.04;101718.19;696095;28;46404;-63
2022/07/08 00:21:02;;;;;;;582.22;551.28;;;;;;;18.41;59.24;101705.75;696445;28;22366;-62
2022/07/08 00:21:24;;;;;;;599.65;567.63;;;;;;;18.44;59.04;101715.44;694689;28;44373;-63
2022/07/08 00:21:49;;;;;;;592.80;561.20;;;;;;;18.42;59.16;101714.81;695319;28;45967;-62
2022/07/08 00:22:11;;;;;;;576.63;546.00;;;;;;;18.40;59.23;101717.75;691554;28;114976;-63
2022/07/08 00:22:33;;;;;;;582.30;551.38;;;;;;;18.38;59.32;101717.09;694798;28;937;-63
2022/07/08 00:22:56;;;;;;;596.40;564.60;;;;;;;18.39;59.24;101720.69;694798;28;34477;-63
2022/07/08 00:23:17;;;;;;;577.17;546.47;;;;;;;18.40;59.24;101716.88;693750;28;46282;-62
2022/07/08 00:23:38;;;;;;;584.75;553.58;;;;;;;18.39;59.49;101716.06;693680;28;22402;-63
2022/07/08 00:24:01;;;;;;;513.10;486.02;;;;;;;18.39;59.26;101716.06;693506;28;45230;-64
2022/07/08 00:24:23;;;;;;;554.20;524.78;;;;;;;18.35;59.43;101709.31;692568;28;45385;-61
2022/07/08 00:24:44;;;;;;;582.13;551.13;;;;;;;18.38;59.39;101719.84;693586;28;46176;-62
2022/07/08 00:25:06;;;;;;;585.70;554.55;;;;;;;18.40;59.45;101717.75;694196;28;23490;-62
2022/07/08 00:25:28;;;;;;;616.45;583.45;;;;;;;18.41;59.20;101721.31;693049;28;44386;-62
2022/07/08 00:25:49;;;;;;;532.55;504.38;;;;;;;18.40;59.31;101722.34;693907;28;46416;-63
2022/07/08 00:26:12;;;;;;;436.75;414.15;;;;;;;18.40;59.41;101720.50;695057;28;22383;-62
2022/07/08 00:26:34;;;;;;;446.17;423.08;;;;;;;18.36;59.28;101706.34;692261;28;67314;-63
2022/07/08 00:26:56;;;;;;;414.65;393.33;;;;;;;18.39;59.20;101718.78;693458;28;17879;-63
2022/07/08 00:27:17;;;;;;;398.30;377.73;;;;;;;18.41;59.25;101719.41;693722;28;46266;-63
2022/07/08 00:27:38;;;;;;;398.90;378.30;;;;;;;18.41;59.10;101719.41;694605;28;22392;-62
2022/07/08 00:27:59;;;;;;;439.98;417.30;;;;;;;18.42;59.22;101718.38;694614;28;21543;-60
2022/07/08 00:28:22;;;;;;;428.10;406.35;;;;;;;18.43;59.26;101713.75;694344;28;22348;-63
2022/07/08 00:28:43;;;;;;;438.53;416.20;;;;;;;18.44;59.23;101718.19;691958;28;69352;-62
2022/07/08 00:29:05;;;;;;;423.13;401.55;;;;;;;18.44;59.10;101715.44;693081;28;46299;-62
2022/07/08 00:29:26;;;;;;;426.25;404.52;;;;;;;18.44;59.17;101715.44;695293;28;956;-63
2022/07/08 00:29:47;;;;;;;415.97;394.87;;;;;;;18.44;59.14;101712.72;694951;28;12361;-62
2022/07/08 00:30:10;;;;;;;420.55;399.15;;;;;;;18.45;59.03;101715.25;694881;28;46477;-62
2022/07/08 00:30:32;;;;;;;424.92;403.25;;;;;;;18.46;59.06;101716.06;692615;28;69306;-61
2022/07/08 00:30:55;;;;;;;412.23;391.13;;;;;;;18.45;59.22;101717.09;694718;28;23255;-63
2022/07/08 00:31:18;;;;;;;417.17;395.77;;;;;;;18.41;59.10;101719.41;692740;28;67518;-62
2022/07/08 00:31:39;;;;;;;389.70;369.92;;;;;;;18.40;59.19;101715.03;691141;28;89098;-62
2022/07/08 00:32:01;;;;;;;403.25;382.65;;;;;;;18.42;59.11;101718.38;693320;28;45257;-62
2022/07/08 00:32:23;;;;;;;321.23;304.88;;;;;;;18.44;59.27;101718.19;693689;28;44228;-63
2022/07/08 00:32:44;;;;;;;275.02;261.10;;;;;;;18.45;59.13;101717.97;694246;28;23492;-63
2022/07/08 00:33:05;;;;;;;381.10;361.83;;;;;;;18.44;59.38;101720.91;695242;28;21538;-64
2022/07/08 00:33:27;;;;;;;414.98;393.77;;;;;;;18.39;59.46;101712.50;693899;28;21549;-63
2022/07/08 00:33:48;;;;;;;397.98;377.80;;;;;;;18.45;59.12;101717.09;694060;28;46364;-63
2022/07/08 00:34:09;;;;;;;409.48;388.60;;;;;;;18.45;59.10;101719.84;693278;28;46281;-63
2022/07/08 00:34:31;;;;;;;369.77;351.15;;;;;;;18.44;59.21;101715.44;693972;28;19555;-63
2022/07/08 00:34:53;;;;;;;426.65;404.80;;;;;;;18.46;59.26;101724.28;694693;28;22385;-61
2022/07/08 00:35:14;;;;;;;575.63;545.60;;;;;;;18.43;59.12;101717.34;693037;28;46303;-63
2022/07/08 00:35:35;;;;;;;584.83;554.22;;;;;;;18.45;59.18;101720.72;694867;28;22407;-62
2022/07/08 00:35:57;;;;;;;585.17;554.67;;;;;;;18.43;59.16;101720.09;694740;28;22161;-62
2022/07/08 00:36:19;;;;;;;589.08;558.40;;;;;;;18.44;59.07;101723.66;692901;28;45198;-62
2022/07/08 00:36:40;;;;;;;613.85;581.60;;;;;;;18.44;59.30;101726.38;693533;28;45258;-63
2022/07/08 00:37:04;;;;;;;614.13;581.83;;;;;;;18.43;59.34;101719.22;693736;28;22407;-63
2022/07/08 00:37:25;;;;;;;606.80;574.88;;;;;;;18.40;59.17;101720.50;691609;28;92122;-63
2022/07/08 00:37:48;;;;;;;597.35;566.10;;;;;;;18.38;59.17;101719.84;694432;28;22403;-64
2022/07/08 00:38:09;;;;;;;607.97;575.83;;;;;;;18.37;59.09;101713.53;693081;28;69413;-64
2022/07/08 00:38:30;;;;;;;603.13;571.20;;;;;;;18.40;59.22;101719.63;695005;28;1716;-63
2022/07/08 00:38:54;;;;;;;587.65;557.00;;;;;;;18.39;59.13;101718.78;694805;28;22473;-63
2022/07/08 00:39:16;;;;;;;587.78;556.92;;;;;;;18.40;59.37;101719.63;691802;28;92194;-63
2022/07/08 00:39:37;;;;;;;614.80;582.28;;;;;;;18.39;59.29;101723.44;693211;28;47436;-64
2022/07/08 00:39:58;;;;;;;594.88;563.58;;;;;;;18.40;59.34;101723.22;694433;28;23524;-63
2022/07/08 00:40:19;;;;;;;623.22;590.22;;;;;;;18.41;59.42;101721.31;693895;28;21662;-62
2022/07/08 00:40:41;;;;;;;611.65;579.38;;;;;;;18.40;59.39;101711.41;694725;28;23543;-64
2022/07/08 00:41:03;;;;;;;624.13;591.03;;;;;;;18.41;59.42;101724.06;693327;28;23528;-64
2022/07/08 00:41:27;;;;;;;613.85;581.35;;;;;;;18.42;59.40;101731.22;693456;28;14876;-64
2022/07/08 00:41:48;;;;;;;619.72;586.88;;;;;;;18.42;59.45;101723.03;693745;28;45092;-63
2022/07/08 00:42:10;;;;;;;629.40;595.90;;;;;;;18.43;59.30;101721.94;694687;28;22212;-63
2022/07/08 00:42:31;;;;;;;600.90;569.05;;;;;;;18.43;59.36;101724.69;692288;28;69194;-64
2022/07/08 00:42:52;;;;;;;611.78;579.50;;;;;;;18.44;59.20;101726.38;694711;28;22391;-64
2022/07/08 00:43:24;;;;;;;611.03;578.80;;;;;;;18.41;59.39;101729.53;693901;28;22466;-64
2022/07/08 00:43:47;;;;;;;618.45;585.63;;;;;;;18.41;59.47;101727.63;690414;28;136007;-63
2022/07/08 00:44:09;;;;;;;627.30;593.92;;;;;;;18.41;59.37;101729.53;692607;28;67161;-63
2022/07/08 00:44:30;;;;;;;639.28;605.17;;;;;;;18.40;59.33;101734.16;694570;28;22214;-63
2022/07/08 00:44:51;;;;;;;608.28;576.08;;;;;;;18.41;59.42;101727.63;694991;28;23472;-63
2022/07/08 00:45:13;;;;;;;621.30;588.45;;;;;;;18.42;59.31;101728.50;694951;28;22172;-63
2022/07/08 00:45:34;;;;;;;624.72;591.58;;;;;;;18.42;59.12;101734.78;694219;28;46179;-63
2022/07/08 00:45:56;;;;;;;615.10;582.67;;;;;;;18.42;59.29;101731.22;694358;28;44375;-65
2022/07/08 00:46:17;;;;;;;623.88;590.80;;;;;;;18.42;59.19;101731.22;695338;28;1567;-62
2022/07/08 00:46:38;;;;;;;616.92;584.38;;;;;;;18.42;59.19;101731.22;689846;28;43413;-63
2022/07/08 00:47:00;;;;;;;626.00;592.80;;;;;;;18.41;59.17;101732.25;692798;28;21539;-63
2022/07/08 00:47:22;;;;;;;608.75;576.70;;;;;;;18.38;59.32;101730.78;689356;28;68132;-63
2022/07/08 00:47:43;;;;;;;620.15;587.35;;;;;;;18.37;59.31;101727.19;691050;28;21977;-63
2022/07/08 00:48:05;;;;;;;603.85;572.08;;;;;;;18.40;59.32;101734.16;691246;28;46252;-64
2022/07/08 00:48:26;;;;;;;614.55;582.13;;;;;;;18.37;59.25;101735.41;691680;28;21456;-64
2022/07/08 00:48:48;;;;;;;590.30;559.28;;;;;;;18.38;59.29;101736.25;692170;28;21548;-64
2022/07/08 00:49:10;;;;;;;543.95;515.40;;;;;;;18.36;59.22;101736.44;690383;28;69421;-64
2022/07/08 00:49:31;;;;;;;302.45;287.02;;;;;;;18.37;59.31;101735.41;691537;28;22280;-64
2022/07/08 00:49:52;;;;;;;233.75;221.90;;;;;;;18.38;59.45;101736.25;691809;28;23422;-63
2022/07/08 00:50:14;;;;;;;229.38;217.80;;;;;;;18.37;59.41;101738.16;691641;28;22381;-64
2022/07/08 00:50:36;;;;;;;227.23;215.75;;;;;;;18.37;59.51;101738.16;690633;28;46399;-63
2022/07/08 00:50:58;;;;;;;233.52;221.73;;;;;;;18.36;59.60;101743.81;691178;28;45038;-64
2022/07/08 00:51:20;;;;;;;284.67;270.38;;;;;;;18.35;59.54;101739.38;690262;28;46974;-64
2022/07/08 00:51:43;;;;;;;459.50;435.90;;;;;;;18.35;59.67;101742.97;693458;28;45106;-64
2022/07/08 00:52:04;;;;;;;581.38;550.92;;;;;;;18.34;59.68;101740.44;691484;28;67276;-64
2022/07/08 00:52:26;;;;;;;579.60;549.28;;;;;;;18.34;59.83;101737.72;693216;28;46321;-64
2022/07/08 00:52:48;;;;;;;587.60;556.75;;;;;;;18.35;59.30;101742.13;693758;28;44674;-64
2022/07/08 00:53:09;;;;;;;582.28;551.65;;;;;;;18.33;59.50;101736.84;693593;28;21531;-64
2022/07/08 00:53:32;;;;;;;585.80;555.00;;;;;;;18.32;59.64;101737.91;693827;28;46310;-64
2022/07/08 00:53:54;;;;;;;600.17;568.60;;;;;;;18.31;59.63;101747.16;692799;28;69410;-63
2022/07/08 00:54:18;;;;;;;595.05;563.83;;;;;;;18.32;59.73;101745.25;693165;28;45332;-63
2022/07/08 00:54:39;;;;;;;609.78;577.72;;;;;;;18.32;59.65;101745.25;692103;28;90430;-64
2022/07/08 00:55:02;;;;;;;582.28;551.72;;;;;;;18.33;59.88;101746.97;694527;28;21555;-64
2022/07/08 00:55:24;;;;;;;586.22;555.53;;;;;;;18.32;59.79;101743.38;692378;28;67476;-64
2022/07/08 00:55:45;;;;;;;597.17;565.80;;;;;;;18.32;59.74;101745.25;694158;28;22378;-64
2022/07/08 00:56:07;;;;;;;578.87;548.53;;;;;;;18.32;59.80;101746.13;693333;28;44221;-64
2022/07/08 00:56:31;;;;;;;595.40;564.15;;;;;;;18.29;59.93;101745.66;692513;28;69405;-64
2022/07/08 00:56:54;;;;;;;586.90;556.20;;;;;;;18.29;59.72;101749.25;692767;28;67473;-62
2022/07/08 00:57:16;;;;;;;610.70;578.45;;;;;;;18.28;59.84;101741.28;691630;28;90584;-64
2022/07/08 00:57:39;;;;;;;585.70;555.15;;;;;;;18.27;59.67;101743.13;693320;28;46410;-64
2022/07/08 00:58:01;;;;;;;587.33;556.72;;;;;;;18.28;59.71;101746.72;693493;28;45228;-64
2022/07/08 00:58:23;;;;;;;591.75;560.80;;;;;;;18.26;59.71;101748.81;692385;28;69310;-65
2022/07/08 00:58:45;;;;;;;582.30;551.85;;;;;;;18.25;59.90;101742.50;693883;28;46300;-63
2022/07/08 00:59:08;;;;;;;609.22;577.17;;;;;;;18.25;60.00;101744.41;693329;28;45207;-63
2022/07/08 00:59:30;;;;;;;578.83;548.65;;;;;;;18.24;59.79;101743.53;693537;28;46103;-63
2022/07/08 00:59:57;;;;;;;592.58;561.65;;;;;;;18.24;59.82;101743.53;693858;28;44116;-63
2022/07/08 01:00:18;;;;;;;588.42;557.60;;;;;;;18.24;59.88;101750.91;690093;28;137756;-63
2022/07/08 01:00:40;;;;;;;603.17;571.53;;;;;;;18.22;59.88;101745.66;694438;28;22447;-64
2022/07/08 01:01:03;;;;;;;595.83;564.67;;;;;;;18.21;60.12;101749.41;694830;28;22313;-63
2022/07/08 01:01:24;;;;;;;610.20;577.97;;;;;;;18.18;59.98;101737.00;691672;28;67461;-64
2022/07/08 01:01:45;;;;;;;587.75;556.95;;;;;;;18.23;60.02;101750.09;694522;28;21530;-63
2022/07/08 01:02:07;;;;;;;587.38;556.70;;;;;;;18.22;59.99;101747.53;694159;28;22295;-64
2022/07/08 01:02:29;;;;;;;608.17;576.15;;;;;;;18.21;60.03;101754.88;693425;28;45167;-63
2022/07/08 01:02:51;;;;;;;607.65;575.63;;;;;;;18.21;60.04;101751.31;693783;28;47483;-63
2022/07/08 01:03:16;;;;;;;592.70;561.42;;;;;;;18.20;60.18;101750.47;690272;28;136331;-63
2022/07/08 01:03:38;;;;;;;607.40;575.38;;;;;;;18.19;59.97;101751.53;694159;28;20888;-63
2022/07/08 01:04:00;;;;;;;604.15;572.40;;;;;;;18.19;60.19;101755.09;693473;28;46128;-62
2022/07/08 01:04:21;;;;;;;604.47;572.72;;;;;;;18.19;60.01;101746.88;693287;28;46530;-63
2022/07/08 01:04:42;;;;;;;596.33;565.03;;;;;;;18.19;60.06;101749.63;694396;28;21542;-61
2022/07/08 01:05:04;;;;;;;604.90;573.10;;;;;;;18.19;60.03;101755.09;694190;28;21491;-63
2022/07/08 01:05:27;;;;;;;613.58;581.25;;;;;;;18.18;60.13;101745.22;694163;28;46384;-63
2022/07/08 01:05:48;;;;;;;578.85;548.50;;;;;;;18.18;60.16;101750.69;693980;28;45298;-63
2022/07/08 01:06:09;;;;;;;591.08;560.03;;;;;;;18.20;60.04;101753.22;693225;28;46267;-62
2022/07/08 01:06:31;;;;;;;604.72;572.85;;;;;;;18.17;59.91;101746.25;693445;28;22361;-63
2022/07/08 01:06:53;;;;;;;590.75;559.75;;;;;;;18.17;60.09;101751.72;693413;28;46206;-64
2022/07/08 01:07:15;;;;;;;582.97;552.45;;;;;;;18.18;60.04;101752.56;692726;28;46412;-64
2022/07/08 01:07:36;;;;;;;594.35;563.22;;;;;;;18.19;60.17;101759.72;694102;28;22628;-62
2022/07/08 01:07:58;;;;;;;592.65;561.25;;;;;;;18.21;60.13;101754.06;693630;28;44344;-63
2022/07/08 01:08:19;;;;;;;613.33;580.20;;;;;;;18.18;60.13;101750.69;694106;28;1598;-63
2022/07/08 01:08:43;;;;;;;593.78;561.75;;;;;;;18.19;60.21;101757.00;695832;28;1037;-64
2022/07/08 01:09:06;;;;;;;609.55;576.47;;;;;;;18.17;60.09;101746.25;693036;28;29657;-63
2022/07/08 01:09:27;;;;;;;580.50;549.70;;;;;;;18.18;59.97;101753.41;692616;28;67512;-64
2022/07/08 01:09:48;;;;;;;557.83;528.47;;;;;;;18.20;60.04;101755.94;693942;28;46389;-63
2022/07/08 01:10:11;;;;;;;589.72;558.53;;;;;;;18.17;59.99;101754.47;694074;28;22189;-64
2022/07/08 01:10:32;;;;;;;583.00;552.10;;;;;;;18.15;60.33;101755.69;693099;28;46339;-63
2022/07/08 01:10:53;;;;;;;598.42;566.60;;;;;;;18.16;60.15;101760.13;693970;28;46264;-63
2022/07/08 01:11:15;;;;;;;609.72;577.17;;;;;;;18.14;60.17;101754.88;694434;28;23458;-63
2022/07/08 01:11:38;;;;;;;587.75;556.53;;;;;;;18.12;59.97;101756.09;693741;28;16070;-63
2022/07/08 01:11:59;;;;;;;598.45;566.58;;;;;;;18.14;60.42;101754.03;692057;28;92095;-64
2022/07/08 01:12:25;;;;;;;574.60;544.28;;;;;;;18.12;60.45;101754.22;693941;28;24043;-64
2022/07/08 01:12:46;;;;;;;607.13;574.75;;;;;;;18.12;60.32;101756.97;690220;28;138167;-63
2022/07/08 01:13:08;;;;;;;588.42;557.17;;;;;;;18.11;60.34;101758.00;693825;28;46180;-63
2022/07/08 01:13:30;;;;;;;608.13;575.55;;;;;;;18.12;60.33;101756.97;694346;28;23457;-63
2022/07/08 01:13:52;;;;;;;592.13;560.60;;;;;;;18.13;60.06;101752.31;693441;28;46333;-63
2022/07/08 01:14:16;;;;;;;621.78;588.25;;;;;;;18.11;60.50;101747.06;692480;28;45313;-63
2022/07/08 01:14:38;;;;;;;597.20;565.33;;;;;;;18.11;60.31;101751.69;691650;28;82946;-63
2022/07/08 01:14:59;;;;;;;596.92;565.13;;;;;;;18.10;60.29;101755.47;694301;28;46150;-64
2022/07/08 01:15:21;;;;;;;595.65;564.05;;;;;;;18.08;60.40;101747.47;694024;28;22218;-64
2022/07/08 01:15:42;;;;;;;575.83;545.28;;;;;;;18.08;60.61;101746.63;693499;28;46380;-64
2022/07/08 01:16:05;;;;;;;590.37;558.90;;;;;;;18.09;60.58;101751.06;693317;28;46332;-63
2022/07/08 01:16:27;;;;;;;598.83;566.85;;;;;;;18.07;60.62;101747.66;691270;28;69431;-64
2022/07/08 01:16:48;;;;;;;575.58;545.33;;;;;;;18.11;60.45;101757.16;692942;28;43817;-64
2022/07/08 01:17:10;;;;;;;591.83;560.60;;;;;;;18.08;60.55;101750.19;693179;28;23712;-64
2022/07/08 01:17:41;;;;;;;588.60;557.80;;;;;;;18.13;60.26;101760.53;693083;28;46331;-64
2022/07/08 01:18:02;;;;;;;578.63;548.33;;;;;;;18.10;60.40;101755.47;689690;28;137475;-64
2022/07/08 01:18:27;;;;;;;596.85;565.58;;;;;;;18.13;60.43;101755.06;694992;28;22294;-64
2022/07/08 01:18:48;;;;;;;569.97;540.17;;;;;;;18.12;60.41;101754.22;690840;28;116123;-63
2022/07/08 01:19:09;;;;;;;559.55;530.33;;;;;;;18.13;60.53;101744.13;693577;28;23504;-63
2022/07/08 01:19:33;;;;;;;587.22;556.22;;;;;;;18.13;60.61;101766.84;694236;28;21481;-64
2022/07/08 01:19:54;;;;;;;576.70;546.30;;;;;;;18.12;60.42;101756.09;692011;28;90977;-63
2022/07/08 01:20:16;;;;;;;585.45;554.75;;;;;;;18.13;60.45;101752.31;694253;28;22386;-64
2022/07/08 01:20:45;;;;;;;589.15;558.20;;;;;;;18.13;60.62;101753.16;693901;28;22399;-62
2022/07/08 01:21:07;;;;;;;600.75;569.13;;;;;;;18.08;60.50;101743.91;689744;28;161057;-63
2022/07/08 01:21:28;;;;;;;603.78;571.92;;;;;;;18.15;60.46;101748.34;692012;28;67583;-64
2022/07/08 01:21:50;;;;;;;605.92;573.88;;;;;;;18.16;60.38;101751.94;694479;28;22392;-63
2022/07/08 01:22:15;;;;;;;604.95;572.90;;;;;;;18.16;60.40;101754.66;691903;28;93868;-64
2022/07/08 01:22:36;;;;;;;602.03;570.13;;;;;;;18.16;60.48;101757.41;693212;28;47594;-64
2022/07/08 01:22:57;;;;;;;596.92;565.58;;;;;;;18.14;60.52;101751.28;694042;28;23407;-64
2022/07/08 01:23:19;;;;;;;597.90;566.42;;;;;;;18.17;60.41;101753.63;692936;28;43364;-65
2022/07/08 01:23:41;;;;;;;602.58;571.00;;;;;;;18.16;60.37;101751.94;693688;28;23186;-63
2022/07/08 01:24:02;;;;;;;594.25;563.05;;;;;;;18.13;60.53;101750.44;692725;28;46455;-65
2022/07/08 01:24:23;;;;;;;612.50;580.13;;;;;;;18.14;60.53;101752.13;693379;28;45170;-63
2022/07/08 01:24:45;;;;;;;628.90;595.58;;;;;;;18.14;60.45;101752.13;694357;28;22411;-62
2022/07/08 01:25:07;;;;;;;612.72;580.20;;;;;;;18.14;60.61;101751.28;693518;28;22234;-62
2022/07/08 01:25:29;;;;;;;617.03;584.38;;;;;;;18.13;60.53;101746.88;693487;28;45244;-63
2022/07/08 01:25:51;;;;;;;597.65;566.20;;;;;;;18.14;60.54;101756.75;690294;28;43253;-63
2022/07/08 01:26:13;;;;;;;599.38;567.83;;;;;;;18.13;60.57;101749.59;690594;28;46630;-63
2022/07/08 01:26:35;;;;;;;610.05;577.90;;;;;;;18.13;60.45;101755.06;689609;28;46323;-61
2022/07/08 01:26:56;;;;;;;609.97;577.70;;;;;;;18.12;60.48;101746.03;690353;28;45210;-63
2022/07/08 01:27:18;;;;;;;620.80;587.75;;;;;;;18.05;60.66;101738.84;690872;28;22383;-61
2022/07/08 01:27:39;;;;;;;620.15;587.17;;;;;;;18.11;60.66;101755.25;691819;28;46257;-64
2022/07/08 01:28:00;;;;;;;608.72;576.50;;;;;;;18.10;60.41;101745.41;694255;28;21542;-63
2022/07/08 01:28:22;;;;;;;624.95;591.78;;;;;;;18.11;60.66;101754.44;694952;28;964;-63
2022/07/08 01:28:44;;;;;;;623.85;590.60;;;;;;;18.08;60.90;101742.00;693430;28;45225;-63
2022/07/08 01:29:06;;;;;;;638.47;604.33;;;;;;;18.09;60.76;101751.06;693164;28;46379;-63
2022/07/08 01:29:27;;;;;;;620.90;588.03;;;;;;;18.08;60.88;101746.63;694108;28;21598;-62
2022/07/08 01:29:48;;;;;;;632.42;598.67;;;;;;;18.12;60.64;101747.91;693407;28;46217;-62
2022/07/08 01:30:11;;;;;;;612.85;580.38;;;;;;;18.09;60.47;101748.34;694014;28;21324;-62
2022/07/08 01:30:32;;;;;;;628.70;595.17;;;;;;;18.13;60.78;101749.59;692457;28;69302;-64
2022/07/08 01:30:54;;;;;;;604.75;572.85;;;;;;;18.05;60.61;101736.09;695149;28;21461;-63
2022/07/08 01:31:16;;;;;;;647.22;612.47;;;;;;;18.14;60.75;101754.03;693118;28;45098;-63
2022/07/08 01:31:38;;;;;;;616.45;583.80;;;;;;;18.14;60.50;101757.59;692134;28;66391;-63
2022/07/08 01:32:00;;;;;;;605.53;573.43;;;;;;;18.14;60.64;101749.41;693437;28;46286;-64
2022/07/08 01:32:21;;;;;;;625.95;592.70;;;;;;;18.15;60.51;101755.69;693525;28;46141;-63
2022/07/08 01:32:42;;;;;;;632.35;598.55;;;;;;;18.15;60.42;101750.22;694305;28;23485;-63
2022/07/08 01:33:04;;;;;;;621.92;588.95;;;;;;;18.12;60.35;101747.91;693049;28;45257;-64
2022/07/08 01:33:25;;;;;;;607.97;575.83;;;;;;;18.16;60.42;101754.66;693436;28;46252;-65
2022/07/08 01:33:47;;;;;;;622.88;589.92;;;;;;;18.16;60.37;101749.19;694606;28;23522;-62
2022/07/08 01:34:09;;;;;;;599.50;567.85;;;;;;;18.16;60.47;101754.66;695030;28;23485;-64
2022/07/08 01:34:30;;;;;;;620.00;587.22;;;;;;;18.15;60.46;101753.81;694298;28;6059;-64
2022/07/08 01:34:51;;;;;;;612.87;580.50;;;;;;;18.14;60.49;101757.59;693794;28;46337;-63
2022/07/08 01:35:12;;;;;;;632.80;598.95;;;;;;;18.14;60.67;101743.94;692996;28;45091;-63
2022/07/08 01:35:35;;;;;;;594.40;563.20;;;;;;;18.15;60.67;101750.22;694229;28;22282;-63
2022/07/08 01:35:58;;;;;;;605.28;573.42;;;;;;;18.12;60.62;101746.03;693507;28;44003;-63
2022/07/08 01:36:19;;;;;;;599.78;568.17;;;;;;;18.15;60.46;101751.09;692133;28;68897;-64
2022/07/08 01:36:40;;;;;;;594.00;562.80;;;;;;;18.16;60.49;101749.19;694288;28;21535;-64
2022/07/08 01:37:02;;;;;;;614.03;581.63;;;;;;;18.16;60.59;101746.47;693692;28;21526;-64
2022/07/08 01:37:27;;;;;;;589.92;558.95;;;;;;;18.13;60.45;101746.88;693117;28;69324;-64
2022/07/08 01:37:48;;;;;;;596.83;565.38;;;;;;;18.15;60.55;101750.22;691711;28;92262;-63
2022/07/08 01:38:09;;;;;;;604.72;572.88;;;;;;;18.17;60.23;101756.34;694908;28;926;-64
2022/07/08 01:38:31;;;;;;;603.50;571.83;;;;;;;18.16;60.53;101752.75;693982;28;22468;-63
2022/07/08 01:38:53;;;;;;;603.72;572.00;;;;;;;18.16;60.61;101763.69;693298;28;46351;-63